Relevés horaires Laegern (Suisse)


Relevés horaires à Laegern - Samedi 03 Juill. 2021
Heure UTC1 Température [°C] Vent [km/h] Hum. [%] Pres.4 [hPa] Visi. [Km] Nébu. [octa] Préc.5 [mm] Cond.
2m. Res. Ros. Dir.2 Vit. Moy. Raf.3
23:00 13.5 13.5 13.4 SSO 0.0 -- 27.8 99 850(-0.4/3h) -- -- -- --
22:00 13.4 13.4 13.3 S 0.0 -- 24.1 99 850(-0.2/3h) -- -- -- --
21:00 13.4 13.4 13.3 SSO 0.0 -- 24.1 99 850(-0.1/3h) -- -- -- --
20:00 13.4 13.4 12.1 SSO 0.0 -- 18.5 92 850(-0.4/3h) -- -- -- --
19:00 14.3 14.3 11.2 OSO 0.0 -- 24.1 82 850(-0.6/3h) -- -- -- --
18:00 14.1 14.1 12.0 OSO 0.0 -- 35.2 87 850(0.1/3h) -- -- -- --
17:00 13.5 13.5 12.9 ONO 0.0 -- 27.8 96 850(0.3/3h) -- -- -- --
16:00 14.9 14.9 13.3 OSO 0.0 -- 35.2 90 850(0.5/3h) -- -- -- --
15:00 16.8 16.8 13.6 SO 0.0 -- 33.3 81 850(-0.2/3h) -- -- -- --
14:00 19.4 19.4 11.0 SSO 0.0 -- 20.4 58 850(-0.4/3h) -- -- -- --
13:00 20.7 20.7 11.2 S 0.0 -- 14.8 54 850(-0.8/3h) -- -- -- --
12:00 20.4 20.4 10.1 S 0.0 -- 16.7 52 850(-0.7/3h) -- -- -- --
11:00 19.8 19.8 11.7 N 0.0 -- 11.1 60 850(-0.4/3h) -- -- -- --
10:00 18.5 18.5 10.8 NE 0.0 -- 9.3 61 850(-0.1/3h) -- -- -- --
09:00 18.7 18.7 11.4 SSE 0.0 -- 16.7 63 850(-0.2/3h) -- -- -- --
08:00 18.1 18.1 11.2 SSE 0.0 -- 9.3 64 850(-0.4/3h) -- -- -- --
07:00 15.5 15.5 9.0 E 0.0 -- 16.7 65 850(-0.3/3h) -- -- -- --
06:00 15.0 15.0 8.5 ESE 0.0 -- 27.8 65 850(-0.2/3h) -- -- -- --
05:00 15.2 15.2 8.2 E 0.0 -- 18.5 63 850(0.0/3h) -- -- -- --
04:00 15.5 15.5 8.0 ESE 0.0 -- 16.7 61 850(-0.3/3h) -- -- -- --
03:00 14.9 14.9 8.6 ESE 0.0 -- 27.8 66 850(-0.3/3h) -- -- -- --
02:00 13.9 13.9 8.8 NE 0.0 -- 22.2 71 850(-0.5/3h) -- -- -- --
01:00 15.7 15.7 7.2 E 0.0 -- 27.8 57 850(-0.7/3h) -- -- -- --
00:00 15.6 15.6 8.2 E 0.0 -- 31.5 61 850(-0.9/3h) -- -- -- --

1 Coordinated Universal Time. Actuellement il est 06:00 locale et 04:00 UTC.

2 Le vent souffle depuis la direction indiquée vers la direction oposée.

3 Les rafales max. sont disponible 40 min après l'heure du relevé.

4 Pour les stations d'altitude (plus de 600m) le géopotentiel du niveau le plus proche de la pression obligatoire est indiqué.

5 Les stations disposant d'un diffuseur peuvent indiquer "trace". Cela signifie que des précipitations ont touchés le sol mais que la quantité est inférieure à 0.1 mm.

Copyright

Les données affichées sur cette page sont la propriété exclusive de Météo Suisse.

Récapitulatif de la journée
Température [°C] Vent [km/h] Ensoleillement4 [h] Precipitations totale5 [mm] Pression [Hpa]
Min1 Max.2 Moy.3 Max. Min Max.
13.4 21.0 0 35.2 6 h 24 min 0 850.0 850.0

1 Température minimale relevée entre 18:00 UTC la veille et 18:00 UTC le jour donné.

2 Température maximale relevée entre 06:00 UTC le jour donné et 06:00 UTC le lendemain.

3 Vent moyen de la journée basé sur les relevés horaires.

4 Ensoleillement en heures relevé entre 06:00 UTC la veille et 06:00 UTC le jour donné.

5 Précipitations totales tombées entre 06:00 UTC la jour donné et 06:00 UTC le lendemain.

Graphiques horaires